Have a Safe July 4th! 

Flight Track Log - Related Links

Times and Time Zones

All times are in EDT time to prevent confusion due to time zone crossing. See the QXE2087 flight status page for this flight to view local times or setup timezone preferences in your user account.

Time Position Orientation Groundspeed Altitude Reporting Facility
EDT Latitude Longitude Course Direction KTS MPH feet Rate Location/Type
Thu 09:14:00 AM 46.2229 -118.9401 287° West  Level FlightAware Approximate
Thu 09:15:00 AM 46.2397 -119.0185 287° West  Level FlightAware Approximate
Thu 09:16:00 AM 46.2500 -119.0983 270° West  Level FlightAware Approximate
Thu 09:17:00 AM 46.2690 -119.1756 290° West  Level FlightAware Approximate
Thu 09:18:00 AM 46.2884 -119.2529 290° West  Level FlightAware Approximate
Thu 09:19:00 AM 46.3077 -119.3301 290° West  Level FlightAware Approximate
Thu 09:20:00 AM 46.3269 -119.4075 290° West  Level FlightAware Approximate
Thu 09:21:00 AM 46.3395 -119.4870 284° West  Level FlightAware Approximate
Thu 09:22:00 AM 46.3541 -119.5664 290° West  Level FlightAware Approximate
Thu 09:23:00 AM 46.3735 -119.6438 290° West  Level FlightAware Approximate
Thu 09:24:00 AM 46.3944 -119.7202 294° West  Level FlightAware Approximate
Thu 09:25:00 AM 46.4171 -119.7957 294° West  Level FlightAware Approximate
Thu 09:26:00 AM 46.4371 -119.8726 284° West  Level FlightAware Approximate
Thu 09:27:00 AM 46.4506 -119.9526 290° West  Level FlightAware Approximate
Thu 09:28:00 AM 46.4766 -120.0591 289° West  Level FlightAware Approximate
Thu 09:29:00 AM 46.5024 -120.1658 289° West  Level FlightAware Approximate
Thu 09:30:00 AM 46.5281 -120.2725 289° West  Level FlightAware Approximate
Thu 09:31:00 AM 46.5538 -120.3794 289° West  Level FlightAware Approximate
Thu 09:32:00 AM 46.5852 -120.4826 299° West  Level FlightAware Approximate
Thu 09:33:00 AM 46.6251 -120.5792 314° West  Level FlightAware Approximate
Thu 09:34:00 AM 46.6723 -120.6686 302° West  Level FlightAware Approximate
Thu 09:35:00 AM 46.7150 -120.7634 306° West  Level FlightAware Approximate
Thu 09:36:00 AM 46.7565 -120.8595 302° West  Level FlightAware Approximate
Thu 09:37:00 AM 46.8014 -120.9527 306° West  Level FlightAware Approximate
Thu 09:38:00 AM 46.8474 -121.0448 306° West  Level FlightAware Approximate
Thu 09:39:00 AM 46.8903 -121.1403 303° West  Level FlightAware Approximate
Thu 09:40:00 AM 46.9329 -121.2361 303° West  Level FlightAware Approximate
Thu 09:41:00 AM 46.9754 -121.3320 303° West  Level FlightAware Approximate
Thu 09:42:00 AM 47.0256 -121.4074 303° West  Level FlightAware Approximate
Thu 09:43:00 AM 47.0676 -121.5039 290° West  Level FlightAware Approximate
Thu 09:44:00 AM 47.1043 -121.6032 310° West  Level FlightAware Approximate
Thu 09:45:00 AM 47.1500 -121.6935 270° West  Level FlightAware Approximate
Thu 09:46:00 AM 47.1936 -121.7872 306° West  Level FlightAware Approximate
Thu 09:47:00 AM 47.2406 -121.8765 301° West  Level FlightAware Approximate
Thu 09:48:00 AM 47.2899 -121.9784 320° Northwest  Level Estimated
Thu 09:49:00 AM 47.2806 -122.1029 264° West  Level FlightAware Approximate
Thu 09:50:00 AM 47.2899 -121.9784 84° East  Level FlightAware Approximate
Thu 09:51:00 AM 47.3391 -122.0806 316° Northwest  Level Estimated
Thu 09:52:00 AM 47.3822 -122.1886 301° West  Level FlightAware Approximate
Thu 09:53:00 AM 47.4333 -122.3000 306° West  Level FlightAware Approximate
Thu 09:54:00 AM 47.4499 -122.3118 306° West  Level Estimated
Thu 09:55:00 AM 47.4499 -122.3118 306° West  Level Estimated
Thu 09:56:00 AM 47.4499 -122.3118 306° West  Level Estimated
Thu 09:57:00 AM 47.4499 -122.3118 306° West  Level Estimated
Thu 09:58:00 AM 47.4499 -122.3118 306° West  Level Estimated
Thu 09:59:00 AM 47.4499 -122.3118 306° West  Level Estimated
Thu 10:00:00 AM 47.4499 -122.3118 306° West  Level Estimated
Thu 10:01:00 AM 47.4499 -122.3118 306° West  Level Estimated
Thu 10:02:00 AM 47.4499 -122.3118 306° West  Level Estimated
Thu 10:03:00 AM 47.4499 -122.3118 306° West  Level Estimated
Thu 10:04:00 AM 47.4499 -122.3118 306° West  Level Estimated
Thu 10:05:00 AM 47.4499 -122.3118 306° West  Level Estimated
Thu 10:06:00 AM 47.4499 -122.3118 306° West  Level Estimated
Thu 10:07:00 AM 47.4499 -122.3118 306° West  Level Estimated

Login

Don't have an account? Register now (free) for customized features, flight alerts, and more!